createdAt,value
2018-07-29T00:58:36.854Z,20.10
2018-07-29T01:01:05.447Z,20.00
2018-07-29T01:03:34.465Z,20.10
2018-07-29T01:06:04.148Z,20.10
2018-07-29T01:08:32.537Z,20.10
2018-07-29T01:11:01.360Z,20.10
2018-07-29T01:13:30.070Z,20.10
2018-07-29T01:15:58.745Z,20.10
2018-07-29T01:18:27.425Z,20.00
2018-07-29T01:20:55.868Z,20.10
2018-07-29T01:23:25.417Z,20.10
2018-07-29T01:25:54.008Z,20.10
2018-07-29T01:28:22.697Z,20.00
2018-07-29T01:30:51.375Z,20.00
2018-07-29T01:33:20.381Z,20.00
2018-07-29T01:35:49.394Z,19.90
2018-07-29T01:38:18.084Z,19.90
2018-07-29T01:40:46.637Z,19.80
2018-07-29T01:43:15.338Z,19.80
2018-07-29T01:45:44.034Z,19.80
2018-07-29T01:48:12.964Z,19.70
2018-07-29T01:50:41.745Z,19.70
2018-07-29T01:53:10.122Z,19.70
2018-07-29T01:55:39.232Z,19.70
2018-07-29T01:58:10.000Z,19.70
2018-07-29T02:00:38.377Z,19.70
2018-07-29T02:03:07.044Z,19.70
2018-07-29T02:05:35.571Z,19.70
2018-07-29T02:08:04.629Z,19.60
2018-07-29T02:10:33.013Z,19.60
2018-07-29T02:13:03.000Z,19.50
2018-07-29T02:15:31.429Z,19.50
2018-07-29T02:17:59.831Z,19.40
2018-07-29T02:20:28.218Z,19.40
2018-07-29T02:22:56.740Z,19.30
2018-07-29T02:25:25.162Z,19.30
2018-07-29T02:27:53.893Z,19.20
2018-07-29T02:30:22.300Z,19.10
2018-07-29T02:32:51.418Z,19.10
2018-07-29T02:35:20.415Z,19.10
2018-07-29T02:37:49.856Z,19.00
2018-07-29T02:40:18.556Z,19.00
2018-07-29T02:42:46.919Z,19.00
2018-07-29T02:45:15.999Z,18.90
2018-07-29T02:47:44.618Z,18.90
2018-07-29T02:50:13.952Z,18.90
2018-07-29T02:52:42.393Z,18.90
2018-07-29T02:55:10.829Z,18.90
2018-07-29T02:57:39.194Z,18.80
2018-07-29T03:00:09.599Z,18.70
2018-07-29T03:02:38.554Z,18.80
2018-07-29T03:05:07.122Z,18.70
2018-07-29T03:07:36.516Z,18.80
2018-07-29T03:10:05.384Z,18.80
2018-07-29T03:12:33.745Z,18.70
2018-07-29T03:15:02.284Z,18.70
2018-07-29T03:17:30.662Z,18.70
2018-07-29T03:19:59.397Z,18.70
2018-07-29T03:22:28.010Z,18.70
2018-07-29T03:24:56.930Z,18.60
2018-07-29T03:27:25.575Z,18.60
2018-07-29T03:29:54.723Z,18.60
2018-07-29T03:32:23.406Z,18.60
2018-07-29T03:34:51.823Z,18.60
2018-07-29T03:37:20.456Z,18.60
2018-07-29T03:39:49.545Z,18.50
2018-07-29T03:42:18.293Z,18.50
2018-07-29T03:44:46.887Z,18.50
2018-07-29T03:47:16.130Z,18.50
2018-07-29T03:49:44.529Z,18.50
2018-07-29T03:52:13.517Z,18.50
2018-07-29T03:54:42.384Z,18.50
2018-07-29T03:57:10.960Z,18.50
2018-07-29T03:59:40.572Z,18.50
2018-07-29T04:02:11.541Z,18.50
2018-07-29T04:04:40.153Z,18.50
2018-07-29T04:07:09.087Z,18.50
2018-07-29T04:09:37.544Z,18.50
2018-07-29T04:12:06.510Z,18.60
2018-07-29T04:14:35.763Z,18.50
2018-07-29T04:17:04.559Z,18.60
2018-07-29T04:19:33.400Z,18.60
2018-07-29T04:22:02.053Z,18.60
2018-07-29T04:24:30.960Z,18.60
2018-07-29T04:26:59.389Z,18.60
2018-07-29T04:29:28.394Z,18.60
2018-07-29T04:31:56.762Z,18.60
2018-07-29T04:34:25.618Z,18.60
2018-07-29T04:36:54.217Z,18.70
2018-07-29T04:39:23.559Z,18.70
2018-07-29T04:41:52.411Z,18.70
2018-07-29T04:44:21.220Z,18.80
2018-07-29T04:46:49.779Z,18.80
2018-07-29T04:49:18.245Z,18.80
2018-07-29T04:51:47.337Z,18.90
2018-07-29T04:54:16.040Z,18.90
2018-07-29T04:56:44.928Z,19.00
2018-07-29T04:59:13.915Z,19.00
2018-07-29T05:01:42.830Z,19.00
2018-07-29T05:04:11.712Z,19.10
2018-07-29T05:06:40.091Z,19.10
2018-07-29T05:11:37.345Z,19.20
2018-07-29T05:14:06.477Z,19.20
2018-07-29T05:16:35.124Z,19.30
2018-07-29T05:19:04.349Z,19.40
2018-07-29T05:21:33.301Z,19.50
2018-07-29T05:36:08.007Z,19.60
2018-07-29T05:38:37.156Z,19.80
2018-07-29T05:41:07.165Z,20.40
2018-07-29T05:43:36.637Z,20.60
2018-07-29T05:46:05.579Z,20.60
2018-07-29T05:48:34.681Z,20.70
2018-07-29T05:51:03.128Z,20.70
2018-07-29T05:56:00.240Z,20.70
2018-07-29T05:58:28.851Z,20.70
2018-07-29T06:00:58.731Z,20.80
2018-07-29T06:03:27.251Z,20.90
2018-07-29T06:05:55.896Z,20.90
2018-07-29T06:08:24.633Z,21.10
2018-07-29T06:10:53.052Z,21.10
2018-07-29T06:13:22.150Z,21.20
2018-07-29T06:15:50.760Z,21.20
2018-07-29T06:18:19.307Z,21.30
2018-07-29T06:20:48.063Z,21.50
2018-07-29T06:23:17.619Z,21.90
2018-07-29T06:25:46.198Z,22.40
2018-07-29T06:28:15.065Z,22.70
2018-07-29T06:30:43.586Z,23.10
2018-07-29T06:33:12.491Z,23.40
2018-07-29T06:35:40.901Z,23.80
2018-07-29T06:38:10.118Z,24.50
2018-07-29T06:40:38.559Z,25.30
2018-07-29T06:43:07.774Z,25.50
2018-07-29T06:45:40.886Z,25.90
2018-07-29T06:48:09.917Z,26.70
2018-07-29T06:50:38.571Z,27.40
2018-07-29T06:53:07.261Z,28.10
2018-07-29T06:55:36.227Z,29.20
2018-07-29T06:58:05.249Z,30.20
2018-07-29T07:00:33.684Z,30.80
2018-07-29T07:03:02.136Z,31.60
2018-07-29T07:05:31.625Z,32.40
2018-07-29T07:08:02.455Z,33.20
2018-07-29T07:10:31.447Z,33.60
2018-07-29T07:13:00.112Z,33.40
2018-07-29T07:15:28.888Z,34.20
2018-07-29T07:17:57.499Z,33.90
2018-07-29T07:20:26.757Z,33.60
2018-07-29T07:22:55.789Z,33.00
2018-07-29T07:25:25.377Z,32.80
2018-07-29T07:27:54.038Z,33.60
2018-07-29T07:30:23.071Z,34.10
2018-07-29T07:32:52.908Z,34.60
2018-07-29T07:35:21.529Z,35.30
2018-07-29T07:37:50.106Z,35.40
2018-07-29T07:40:18.943Z,35.90
2018-07-29T07:42:47.957Z,36.30
2018-07-29T07:45:17.050Z,36.80
2018-07-29T07:47:45.782Z,36.40
2018-07-29T07:50:14.579Z,35.70
2018-07-29T07:52:43.253Z,36.00
2018-07-29T07:57:46.371Z,36.10
2018-07-29T08:00:14.995Z,36.30
2018-07-29T08:05:18.403Z,36.20
2018-07-29T08:07:46.962Z,35.80
2018-07-29T08:10:15.691Z,35.40
2018-07-29T08:12:44.245Z,35.30
2018-07-29T08:15:13.960Z,35.40
2018-07-29T08:17:42.392Z,35.70
2018-07-29T08:20:10.967Z,35.20
2018-07-29T08:22:39.385Z,35.10
2018-07-29T08:25:08.356Z,34.90
2018-07-29T08:27:37.268Z,35.40
2018-07-29T08:30:06.617Z,35.60
2018-07-29T08:32:36.375Z,36.20
2018-07-29T08:35:05.285Z,36.20
2018-07-29T08:37:34.583Z,36.20
2018-07-29T08:40:03.226Z,35.90
2018-07-29T08:42:31.913Z,35.70
2018-07-29T08:45:02.255Z,36.10
2018-07-29T08:47:30.947Z,36.50
2018-07-29T08:50:00.302Z,37.10
2018-07-29T08:52:28.741Z,37.00
2018-07-29T08:54:57.408Z,36.50
2018-07-29T08:57:26.128Z,36.70
2018-07-29T08:59:54.789Z,35.80
2018-07-29T09:02:24.156Z,35.70
2018-07-29T09:04:53.212Z,35.00
2018-07-29T09:07:22.513Z,34.90
2018-07-29T09:09:51.085Z,34.30
2018-07-29T09:12:19.583Z,33.90
2018-07-29T09:14:48.443Z,33.90
2018-07-29T09:17:17.395Z,34.40
2018-07-29T09:19:46.232Z,34.90
2018-07-29T09:22:15.130Z,34.30
2018-07-29T09:24:43.550Z,34.20
2018-07-29T09:27:12.478Z,33.50
2018-07-29T09:29:41.795Z,33.60
2018-07-29T09:32:11.113Z,33.40
2018-07-29T09:34:40.045Z,32.60
2018-07-29T09:37:09.524Z,31.90
2018-07-29T09:39:38.385Z,32.30
2018-07-29T09:42:07.039Z,33.30
2018-07-29T09:44:36.019Z,32.90
2018-07-29T09:47:05.465Z,33.30
2018-07-29T09:49:34.619Z,32.90
2018-07-29T09:52:03.516Z,32.90
2018-07-29T09:54:32.853Z,32.70
2018-07-29T09:57:01.500Z,32.20
2018-07-29T09:59:30.402Z,32.10
2018-07-29T10:01:59.285Z,33.00
2018-07-29T10:04:28.704Z,33.90
2018-07-29T10:06:57.161Z,34.50
2018-07-29T10:09:32.857Z,35.20
2018-07-29T10:12:01.755Z,35.60
2018-07-29T10:14:30.655Z,35.90
2018-07-29T10:17:00.635Z,36.60
2018-07-29T10:19:29.345Z,36.90
2018-07-29T10:21:57.828Z,36.40
2018-07-29T10:24:27.118Z,36.50
2018-07-29T10:26:55.668Z,36.50
2018-07-29T10:29:24.192Z,36.80
2018-07-29T10:31:53.283Z,36.70
2018-07-29T10:34:21.787Z,36.20
2018-07-29T10:36:50.660Z,36.60
2018-07-29T10:39:19.934Z,36.60
2018-07-29T10:41:48.449Z,35.70
2018-07-29T10:44:18.300Z,34.70
2018-07-29T10:46:48.213Z,34.30
2018-07-29T10:49:17.247Z,33.50
2018-07-29T10:51:45.706Z,33.40
2018-07-29T10:54:14.115Z,33.50
2018-07-29T10:56:43.282Z,33.70
2018-07-29T11:01:40.235Z,34.50
2018-07-29T11:04:09.325Z,34.10
2018-07-29T11:06:38.446Z,33.20
2018-07-29T11:09:08.278Z,32.50
2018-07-29T11:11:36.943Z,32.10
2018-07-29T11:14:05.927Z,32.40
2018-07-29T11:16:35.381Z,32.60
2018-07-29T11:19:04.871Z,32.40
2018-07-29T11:21:33.322Z,32.60
2018-07-29T11:24:02.007Z,32.80
2018-07-29T11:26:30.429Z,32.10
2018-07-29T11:28:59.376Z,32.50
2018-07-29T11:36:24.695Z,32.30
2018-07-29T11:38:53.335Z,32.40
2018-07-29T11:41:21.875Z,32.60
2018-07-29T11:43:50.801Z,32.70
2018-07-29T11:46:20.805Z,32.70
2018-07-29T11:48:51.807Z,32.20
2018-07-29T11:51:20.528Z,31.90
2018-07-29T11:53:49.703Z,31.40
2018-07-29T11:58:46.776Z,31.20
2018-07-29T12:01:17.237Z,31.10
2018-07-29T12:03:45.719Z,31.20
2018-07-29T12:06:14.668Z,31.10
2018-07-29T12:08:44.606Z,31.30
2018-07-29T12:11:14.414Z,31.40
2018-07-29T12:13:43.112Z,31.60
2018-07-29T12:16:12.590Z,31.80
2018-07-29T12:18:41.106Z,31.60
2018-07-29T12:21:10.272Z,31.40
2018-07-29T12:23:39.146Z,31.40
2018-07-29T12:26:11.469Z,31.40
2018-07-29T12:28:40.116Z,31.80
2018-07-29T12:31:08.866Z,32.10
2018-07-29T12:33:38.549Z,32.30
2018-07-29T12:36:07.501Z,32.40
2018-07-29T12:38:36.486Z,32.10
2018-07-29T12:41:05.382Z,32.00
2018-07-29T12:43:35.323Z,32.20
2018-07-29T12:46:05.320Z,32.00
2018-07-29T12:48:34.051Z,32.00
2018-07-29T12:51:02.853Z,31.60
2018-07-29T12:53:31.572Z,31.60
2018-07-29T12:56:00.323Z,31.50
2018-07-29T12:58:29.111Z,31.60
2018-07-29T13:00:57.809Z,31.80
2018-07-29T13:03:26.624Z,32.00
2018-07-29T13:05:56.405Z,32.00
2018-07-29T13:08:25.274Z,32.00
2018-07-29T13:10:53.874Z,31.90
2018-07-29T13:13:22.678Z,31.70
2018-07-29T13:15:51.368Z,31.70
2018-07-29T13:18:20.615Z,31.80
2018-07-29T13:20:49.508Z,32.10
2018-07-29T13:23:18.388Z,31.70
2018-07-29T13:25:47.011Z,31.80
2018-07-29T13:28:15.845Z,31.80
2018-07-29T13:30:44.784Z,31.90
2018-07-29T13:33:13.744Z,32.00
2018-07-29T13:35:42.287Z,31.60
2018-07-29T13:38:11.252Z,31.70
2018-07-29T13:40:41.738Z,31.80
2018-07-29T13:43:10.511Z,31.90
2018-07-29T13:45:39.293Z,31.90
2018-07-29T13:48:08.534Z,32.00
2018-07-29T13:50:37.279Z,32.00
2018-07-29T13:53:06.541Z,32.00
2018-07-29T13:55:35.260Z,31.90
2018-07-29T13:58:04.209Z,32.00
2018-07-29T14:00:32.939Z,32.10
2018-07-29T14:03:01.724Z,32.10
2018-07-29T14:05:30.183Z,32.20
2018-07-29T14:07:59.225Z,32.30
2018-07-29T14:10:27.704Z,32.20
2018-07-29T14:12:56.403Z,32.00
2018-07-29T14:15:24.903Z,32.00
2018-07-29T14:17:54.078Z,31.80
2018-07-29T14:20:22.589Z,31.80
2018-07-29T14:22:51.264Z,31.70
2018-07-29T14:25:22.612Z,31.40
2018-07-29T14:27:51.152Z,31.70
2018-07-29T14:30:19.645Z,31.40
2018-07-29T14:32:48.442Z,31.60
2018-07-29T14:35:17.503Z,31.60
2018-07-29T14:37:46.379Z,31.60
2018-07-29T14:40:15.672Z,31.60
2018-07-29T14:42:44.275Z,31.50
2018-07-29T14:45:13.859Z,31.20
2018-07-29T14:47:42.592Z,30.90
2018-07-29T14:50:11.275Z,30.90
2018-07-29T14:52:40.471Z,30.70
2018-07-29T14:55:10.018Z,30.90
2018-07-29T14:57:38.587Z,30.70
2018-07-29T15:00:09.007Z,30.60
2018-07-29T15:02:40.997Z,30.40
2018-07-29T15:05:09.605Z,30.50
2018-07-29T15:07:38.051Z,30.30
2018-07-29T15:10:06.700Z,30.40
2018-07-29T15:12:35.806Z,30.60
2018-07-29T15:15:06.406Z,30.70
2018-07-29T15:17:35.195Z,30.70
2018-07-29T15:20:04.104Z,30.60
2018-07-29T15:22:32.909Z,30.70
2018-07-29T15:25:03.052Z,30.60
2018-07-29T15:27:33.124Z,30.50
2018-07-29T15:30:02.020Z,30.30
2018-07-29T15:32:30.913Z,30.10
2018-07-29T15:34:59.818Z,30.00
2018-07-29T15:37:28.628Z,29.90
2018-07-29T15:39:57.122Z,30.00
2018-07-29T15:42:26.717Z,30.20
2018-07-29T15:44:55.210Z,30.30
2018-07-29T15:47:27.040Z,30.10
2018-07-29T15:52:25.016Z,30.00
2018-07-29T15:54:54.042Z,30.00
2018-07-29T15:57:22.740Z,30.10
2018-07-29T15:59:51.367Z,29.80
2018-07-29T16:02:20.269Z,29.90
2018-07-29T16:04:49.433Z,29.90
2018-07-29T16:07:18.852Z,29.90
2018-07-29T16:09:47.322Z,29.70
2018-07-29T16:12:15.806Z,29.70
2018-07-29T16:14:45.436Z,29.60
2018-07-29T16:17:14.690Z,29.70
2018-07-29T16:19:43.351Z,29.80
2018-07-29T16:22:11.995Z,29.70
2018-07-29T16:24:41.504Z,29.60
2018-07-29T16:27:10.288Z,29.60
2018-07-29T16:29:39.892Z,29.50
2018-07-29T16:32:17.774Z,29.50
2018-07-29T16:34:47.639Z,29.40
2018-07-29T16:37:17.325Z,29.40
2018-07-29T16:39:45.901Z,29.40
2018-07-29T16:42:14.570Z,29.30
2018-07-29T16:44:43.328Z,29.30
2018-07-29T16:47:11.871Z,29.20
2018-07-29T16:49:40.740Z,29.00
2018-07-29T16:52:09.185Z,29.00
2018-07-29T16:54:37.815Z,28.90
2018-07-29T16:57:07.041Z,28.60
2018-07-29T16:59:35.965Z,28.50
2018-07-29T17:02:04.967Z,28.30
2018-07-29T17:04:34.342Z,28.20
2018-07-29T17:07:03.306Z,28.00
2018-07-29T17:09:32.198Z,27.90
2018-07-29T17:12:01.216Z,27.80
2018-07-29T17:14:30.046Z,27.70
2018-07-29T17:16:58.874Z,27.60
2018-07-29T17:19:27.996Z,27.50
2018-07-29T17:21:56.883Z,27.50
2018-07-29T17:24:26.861Z,27.50
2018-07-29T17:26:55.641Z,27.40
2018-07-29T17:29:24.457Z,27.40
2018-07-29T17:31:53.121Z,27.40
2018-07-29T17:34:21.764Z,27.40
2018-07-29T17:36:51.427Z,27.30
2018-07-29T17:39:20.162Z,27.30
2018-07-29T17:41:48.815Z,27.30
2018-07-29T17:44:18.023Z,27.30
2018-07-29T17:46:46.667Z,27.40
2018-07-29T17:49:15.398Z,27.30
2018-07-29T17:51:44.076Z,27.20
2018-07-29T17:54:12.738Z,27.10
2018-07-29T17:56:41.751Z,27.10
2018-07-29T17:59:10.400Z,27.00
2018-07-29T18:01:39.382Z,27.00
2018-07-29T18:04:08.312Z,26.90
2018-07-29T18:06:37.074Z,26.90
2018-07-29T18:09:07.950Z,26.80
2018-07-29T18:11:36.637Z,26.70
2018-07-29T18:14:05.628Z,26.70
2018-07-29T18:16:34.367Z,26.60
2018-07-29T18:19:02.986Z,26.60
2018-07-29T18:21:31.765Z,26.60
2018-07-29T18:26:34.795Z,26.40
2018-07-29T18:29:03.229Z,26.30
2018-07-29T18:31:32.030Z,26.20
2018-07-29T18:34:01.166Z,26.10
2018-07-29T18:36:30.606Z,26.10
2018-07-29T18:38:59.119Z,25.90
2018-07-29T18:41:28.028Z,25.90
2018-07-29T18:43:57.532Z,25.70
2018-07-29T18:46:26.491Z,25.60
2018-07-29T18:48:55.960Z,25.50
2018-07-29T18:51:24.652Z,25.40
2018-07-29T18:53:53.703Z,25.30
2018-07-29T18:56:22.446Z,25.30
2018-07-29T18:58:51.077Z,25.20
2018-07-29T19:03:54.813Z,25.10
2018-07-29T19:06:23.548Z,25.00
2018-07-29T19:08:53.701Z,24.90
2018-07-29T19:11:22.403Z,24.90
2018-07-29T19:13:51.056Z,24.80
2018-07-29T19:16:20.060Z,24.70
2018-07-29T19:18:48.558Z,24.70
2018-07-29T19:21:17.508Z,24.60
2018-07-29T19:26:15.525Z,24.40
2018-07-29T19:28:44.635Z,24.40
2018-07-29T19:31:13.622Z,24.20
2018-07-29T19:33:43.025Z,24.20
2018-07-29T19:36:11.723Z,24.10
2018-07-29T19:38:40.890Z,24.00
2018-07-29T19:41:10.181Z,24.00
2018-07-29T19:43:39.147Z,23.90
2018-07-29T19:46:09.749Z,23.80
2018-07-29T19:48:39.524Z,23.70
2018-07-29T19:51:10.516Z,23.70
2018-07-29T19:53:40.483Z,23.60
2018-07-29T19:56:09.774Z,23.50
2018-07-29T20:01:07.583Z,23.40
2018-07-29T20:03:40.555Z,23.40
2018-07-29T20:06:09.958Z,23.40
2018-07-29T20:08:39.308Z,23.30
2018-07-29T20:11:08.614Z,23.20
2018-07-29T20:13:37.597Z,23.20
2018-07-29T20:16:06.679Z,23.10
2018-07-29T20:18:35.578Z,23.00
2018-07-29T21:18:40.848Z,22.00
2018-07-29T21:21:09.622Z,22.00
2018-07-29T21:23:38.507Z,21.90
2018-07-29T21:26:07.544Z,21.90
2018-07-29T21:28:36.639Z,21.90
2018-07-29T21:31:05.101Z,21.80
2018-07-29T21:36:09.030Z,21.70
2018-07-29T21:38:37.494Z,21.60
2018-07-29T21:41:05.978Z,21.60
2018-07-29T21:43:35.081Z,21.50
2018-07-29T21:46:03.771Z,21.50
2018-07-29T21:48:33.486Z,21.40
2018-07-29T21:51:02.270Z,21.40
2018-07-29T21:53:31.328Z,21.30
